AirNav   ATP
 
 1529 users online  

SC65 Raven's Run Airport
Mount Pleasant, South Carolina, USA

GOING TO MOUNT PLEASANT?


FAA INFORMATION EFFECTIVE 29 MARCH 2018

Location

FAA Identifier: SC65
Lat/Long: 32-49-25.6310N / 079-48-24.2960W
32-49.427183N / 079-48.404933W
32.8237864 / -79.8067489
(estimated)
Elevation: 8 ft. / 2 m (estimated)
Variation: 05W (1985)
From city: 4 miles NE of MOUNT PLEASANT, SC
Time zone: UTC -4 (UTC -5 during Standard Time)
Zip code: 29464

Airport Operations

Airport use: Private use. Permission required prior to landing
Activation date: 08/1985
Control tower: no
ARTCC: JACKSONVILLE CENTER
FSS: ANDERSON FLIGHT SERVICE STATION
Attendance: UNATNDD
Wind indicator: yes
Segmented circle: no

Airport Communications

WX AWOS-3 at LRO (5 nm N): 118.625 (843-849-0438)
WX AWOS-3 at JZI (12 nm SW): 123.775 (843-559-3123)
WX ASOS at CHS (13 nm W): PHONE 843-554-9862

Nearby radio navigation aids

VOR radial/distance  VOR name  Freq  Var
CHSr115/12.4CHARLESTON VORTAC113.5005W

 
NDB name  Hdg/Dist  Freq  Var  ID
DORCHESTER COUNTY128/27.636507WDYB -.. -.-- -...
GEORGETOWN227/38.224208WGGE --. --. .

Airport Services

Runway Information

Runway 15/33

Dimensions: 2400 x 100 ft. / 732 x 30 m
Surface: turf
RUNWAY 15  RUNWAY 33
Traffic pattern: leftleft

Airport Ownership and Management from official FAA records

Ownership: Privately-owned
Owner: RAVEN'S RUN HOA
1414B OMNI BLVD.
MOUNT PLEASANT, SC 29464
Phone 803-747-7800
Manager: CECIL H. MC LEOD
1535 OMNI BLVD
MOUNT PLEASANT, SC 29466
Phone 803-881-0702

Airport Operational Statistics

Aircraft based on the field: 2
Single engine airplanes: 2
    

Instrument Procedures

There are no published instrument procedures at SC65.

Some nearby airports with instrument procedures:

KLRO - Mount Pleasant Regional Airport-Faison Field (5 nm N)
KJZI - Charleston Executive Airport (12 nm SW)
KCHS - Charleston Air Force Base/International Airport (13 nm W)
KMKS - Berkeley County Airport (25 nm NW)
KDYB - Summerville Airport (28 nm NW)
 
Loc | Ops | Rwys | IFR | FBO | Links
Com | Nav | Svcs | Stats | Notes

AirNav Hotels Sweepstakes
 
Area around SC65 (Raven's Run Airport)
 
Road maps at: MapQuest Bing Google
 
Aerial photo
No photo
 
Sectional chart

 
Airport distance calculator
Flying to Raven's Run Airport? Find the distance to fly.

From to SC65

Sunrise and sunset
Times for 19-Apr-2018
 Local
(UTC-4)
 Zulu
(UTC)
Morning civil twilight06:2010:20
Sunrise06:4610:46
Sunset19:5123:51
Evening civil twilight20:1700:17

Current date and time
Zulu (UTC)  19-Apr-2018 14:48:57
Local (UTC-4)  19-Apr-2018 10:48:57
 
METAR
KLRO 
5nm N 
191435Z AUTO 24010KT 10SM FEW029 24/17 A2994 RMK AO2
KCHS 
12nm W 
191356Z 25011G20KT 10SM FEW030 FEW250 23/17 A2994 RMK AO2 SLP136 T02330167
KJZI 
12nm SW 
191435Z AUTO 24011G20KT 10SM CLR 24/17 A2996 RMK AO2
TAF
KCHS 
12nm W 
191120Z 1912/2012 24011G16KT P6SM FEW250 FM191500 26016G24KT P6SM FEW050 FM192300 33008KT P6SM SKC FM200400 01010G17KT P6SM FEW250
NOTAMs
Click for the latest NOTAMs
NOTAMs are issued by the DoD/FAA and will open in a separate window not controlled by AirNav.

 

 
 

Would you like to see your business listed on this page?

 If your business provides an interesting product or service to pilots, flight crews, aircraft, or users of the Raven's Run Airport, you should consider listing it here.  To start the listing process, click on the button below
 
Add a business
 

Other Pages about Raven's Run Airport

Update a link
 
Copyright © AirNav, LLC. All rights reserved. Privacy Policy  Contact